sensor_id;sensor_type;location;lat;lon;timestamp;pressure;altitude;pressure_sealevel;temperature;humidity
19600;BME280;9947;57.722;12.012;2023-04-19T00:00:07;103198.53;;;4.27;100.00
19600;BME280;9947;57.722;12.012;2023-04-19T00:02:37;103198.66;;;4.18;100.00
19600;BME280;9947;57.722;12.012;2023-04-19T00:05:11;103197.00;;;4.03;100.00
19600;BME280;9947;57.722;12.012;2023-04-19T00:07:39;103198.91;;;3.93;100.00
19600;BME280;9947;57.722;12.012;2023-04-19T00:10:08;103206.13;;;3.84;100.00
19600;BME280;9947;57.722;12.012;2023-04-19T00:12:35;103207.06;;;3.78;100.00
19600;BME280;9947;57.722;12.012;2023-04-19T00:15:08;103204.47;;;3.70;100.00
19600;BME280;9947;57.722;12.012;2023-04-19T00:17:37;103203.63;;;3.61;100.00
19600;BME280;9947;57.722;12.012;2023-04-19T00:20:08;103200.97;;;3.65;100.00
19600;BME280;9947;57.722;12.012;2023-04-19T00:22:37;103205.44;;;3.59;100.00
19600;BME280;9947;57.722;12.012;2023-04-19T00:25:09;103197.47;;;3.54;100.00
19600;BME280;9947;57.722;12.012;2023-04-19T00:27:36;103200.16;;;3.53;100.00
19600;BME280;9947;57.722;12.012;2023-04-19T00:30:05;103193.03;;;3.50;100.00
19600;BME280;9947;57.722;12.012;2023-04-19T00:32:35;103188.56;;;3.54;100.00
19600;BME280;9947;57.722;12.012;2023-04-19T00:35:04;103196.59;;;3.51;100.00
19600;BME280;9947;57.722;12.012;2023-04-19T00:37:33;103195.78;;;3.44;100.00
19600;BME280;9947;57.722;12.012;2023-04-19T00:40:04;103197.59;;;3.37;100.00
19600;BME280;9947;57.722;12.012;2023-04-19T00:42:34;103188.66;;;3.42;100.00
19600;BME280;9947;57.722;12.012;2023-04-19T00:45:02;103188.72;;;3.32;100.00
19600;BME280;9947;57.722;12.012;2023-04-19T00:47:29;103192.31;;;3.30;100.00
19600;BME280;9947;57.722;12.012;2023-04-19T00:50:00;103192.38;;;3.22;100.00
19600;BME280;9947;57.722;12.012;2023-04-19T00:52:34;103195.09;;;3.18;100.00
19600;BME280;9947;57.722;12.012;2023-04-19T00:55:05;103196.91;;;3.13;100.00
19600;BME280;9947;57.722;12.012;2023-04-19T00:57:37;103202.22;;;3.16;100.00
19600;BME280;9947;57.722;12.012;2023-04-19T01:00:09;103195.97;;;3.18;100.00
19600;BME280;9947;57.722;12.012;2023-04-19T01:02:37;103200.44;;;3.12;100.00
19600;BME280;9947;57.722;12.012;2023-04-19T01:05:05;103198.66;;;3.17;100.00
19600;BME280;9947;57.722;12.012;2023-04-19T01:07:35;103196.88;;;3.17;100.00
19600;BME280;9947;57.722;12.012;2023-04-19T01:10:03;103194.22;;;3.11;100.00
19600;BME280;9947;57.722;12.012;2023-04-19T01:12:30;103202.22;;;3.16;100.00
19600;BME280;9947;57.722;12.012;2023-04-19T01:15:08;103199.56;;;3.11;100.00
19600;BME280;9947;57.722;12.012;2023-04-19T01:17:38;103203.16;;;3.04;100.00
19600;BME280;9947;57.722;12.012;2023-04-19T01:20:14;103193.34;;;3.06;100.00
19600;BME280;9947;57.722;12.012;2023-04-19T01:22:46;103199.59;;;3.05;100.00
19600;BME280;9947;57.722;12.012;2023-04-19T01:25:18;103197.81;;;3.05;100.00
19600;BME280;9947;57.722;12.012;2023-04-19T01:27:45;103201.38;;;3.04;100.00
19600;BME280;9947;57.722;12.012;2023-04-19T01:30:13;103199.59;;;3.05;100.00
19600;BME280;9947;57.722;12.012;2023-04-19T01:32:42;103200.47;;;3.08;100.00
19600;BME280;9947;57.722;12.012;2023-04-19T01:35:11;103199.56;;;3.11;100.00
19600;BME280;9947;57.722;12.012;2023-04-19T01:37:40;103205.78;;;3.12;100.00
19600;BME280;9947;57.722;12.012;2023-04-19T01:40:11;103206.69;;;3.15;100.00
19600;BME280;9947;57.722;12.012;2023-04-19T01:42:38;103203.06;;;3.22;100.00
19600;BME280;9947;57.722;12.012;2023-04-19T01:45:08;103210.22;;;3.20;100.00
19600;BME280;9947;57.722;12.012;2023-04-19T01:47:36;103210.16;;;3.26;100.00
19600;BME280;9947;57.722;12.012;2023-04-19T01:50:05;103210.22;;;3.17;100.00
19600;BME280;9947;57.722;12.012;2023-04-19T01:52:34;103211.13;;;3.18;100.00
19600;BME280;9947;57.722;12.012;2023-04-19T01:55:02;103212.88;;;3.22;100.00
19600;BME280;9947;57.722;12.012;2023-04-19T01:57:35;103211.97;;;3.24;100.00
19600;BME280;9947;57.722;12.012;2023-04-19T02:00:03;103215.50;;;3.25;100.00
19600;BME280;9947;57.722;12.012;2023-04-19T02:02:35;103210.97;;;3.36;100.00
19600;BME280;9947;57.722;12.012;2023-04-19T02:05:06;103206.50;;;3.41;100.00
19600;BME280;9947;57.722;12.012;2023-04-19T02:07:36;103206.50;;;3.43;100.00
19600;BME280;9947;57.722;12.012;2023-04-19T02:10:04;103205.59;;;3.42;100.00
19600;BME280;9947;57.722;12.012;2023-04-19T02:12:35;103203.81;;;3.43;100.00
19600;BME280;9947;57.722;12.012;2023-04-19T02:15:07;103196.72;;;3.34;100.00
19600;BME280;9947;57.722;12.012;2023-04-19T02:17:37;103195.88;;;3.30;100.00
19600;BME280;9947;57.722;12.012;2023-04-19T02:20:08;103204.88;;;3.20;100.00
19600;BME280;9947;57.722;12.012;2023-04-19T02:22:38;103194.16;;;3.20;100.00
19600;BME280;9947;57.722;12.012;2023-04-19T02:25:08;103191.53;;;3.17;100.00
19600;BME280;9947;57.722;12.012;2023-04-19T02:27:38;103193.34;;;3.14;100.00
19600;BME280;9947;57.722;12.012;2023-04-19T02:30:08;103194.25;;;3.06;100.00
19600;BME280;9947;57.722;12.012;2023-04-19T02:32:37;103201.41;;;3.01;100.00
19600;BME280;9947;57.722;12.012;2023-04-19T02:35:08;103197.06;;;2.87;100.00
19600;BME280;9947;57.722;12.012;2023-04-19T02:38:08;103192.53;;;2.98;100.00
19600;BME280;9947;57.722;12.012;2023-04-19T02:40:36;103188.13;;;2.92;100.00
19600;BME280;9947;57.722;12.012;2023-04-19T02:43:11;103190.81;;;2.85;100.00
19600;BME280;9947;57.722;12.012;2023-04-19T02:45:39;103181.03;;;2.88;100.00
19600;BME280;9947;57.722;12.012;2023-04-19T02:48:06;103181.88;;;2.95;100.00
19600;BME280;9947;57.722;12.012;2023-04-19T02:50:36;103176.53;;;2.92;100.00
19600;BME280;9947;57.722;12.012;2023-04-19T02:53:05;103173.84;;;2.95;100.00
19600;BME280;9947;57.722;12.012;2023-04-19T02:55:37;103172.06;;;2.94;100.00
19600;BME280;9947;57.722;12.012;2023-04-19T02:58:10;103177.44;;;2.89;100.00
19600;BME280;9947;57.722;12.012;2023-04-19T03:03:15;103183.88;;;2.45;100.00
19600;BME280;9947;57.722;12.012;2023-04-19T03:05:43;103177.69;;;2.31;100.00
19600;BME280;9947;57.722;12.012;2023-04-19T03:08:19;103178.63;;;2.23;100.00
19600;BME280;9947;57.722;12.012;2023-04-19T03:10:51;103167.09;;;2.17;100.00
19600;BME280;9947;57.722;12.012;2023-04-19T03:13:21;103174.22;;;2.17;100.00
19600;BME280;9947;57.722;12.012;2023-04-19T03:15:48;103169.72;;;2.24;100.00
19600;BME280;9947;57.722;12.012;2023-04-19T03:18:15;103163.47;;;2.32;100.00
19600;BME280;9947;57.722;12.012;2023-04-19T03:20:43;103162.59;;;2.35;100.00
19600;BME280;9947;57.722;12.012;2023-04-19T03:23:15;103170.56;;;2.32;100.00
19600;BME280;9947;57.722;12.012;2023-04-19T03:25:42;103160.88;;;2.12;100.00
19600;BME280;9947;57.722;12.012;2023-04-19T03:28:10;103165.34;;;1.97;100.00
19600;BME280;9947;57.722;12.012;2023-04-19T03:30:54;103165.34;;;1.98;100.00
19600;BME280;9947;57.722;12.012;2023-04-19T03:33:24;103166.25;;;1.97;100.00
19600;BME280;9947;57.722;12.012;2023-04-19T03:36:03;103164.47;;;1.96;100.00
19600;BME280;9947;57.722;12.012;2023-04-19T03:43:48;103169.72;;;2.22;100.00
19600;BME280;9947;57.722;12.012;2023-04-19T03:46:20;103171.53;;;2.20;100.00
19600;BME280;9947;57.722;12.012;2023-04-19T03:48:51;103165.31;;;2.20;100.00
19600;BME280;9947;57.722;12.012;2023-04-19T03:51:19;103166.16;;;2.25;100.00
19600;BME280;9947;57.722;12.012;2023-04-19T03:53:48;103166.16;;;2.29;100.00
19600;BME280;9947;57.722;12.012;2023-04-19T03:56:18;103159.03;;;2.36;100.00
19600;BME280;9947;57.722;12.012;2023-04-19T03:58:45;103158.97;;;2.46;100.00
19600;BME280;9947;57.722;12.012;2023-04-19T04:01:17;103157.09;;;2.59;100.00
19600;BME280;9947;57.722;12.012;2023-04-19T04:04:00;103157.88;;;2.81;100.00
19600;BME280;9947;57.722;12.012;2023-04-19T04:06:28;103152.44;;;2.99;100.00
19600;BME280;9947;57.722;12.012;2023-04-19T04:09:00;103161.09;;;3.33;100.00
19600;BME280;9947;57.722;12.012;2023-04-19T04:11:27;103159.19;;;3.48;100.00
19600;BME280;9947;57.722;12.012;2023-04-19T04:13:54;103160.78;;;3.68;100.00
19600;BME280;9947;57.722;12.012;2023-04-19T04:16:23;103155.22;;;3.90;100.00
19600;BME280;9947;57.722;12.012;2023-04-19T04:18:53;103159.41;;;4.14;100.00
19600;BME280;9947;57.722;12.012;2023-04-19T04:21:21;103161.34;;;4.75;100.00
19600;BME280;9947;57.722;12.012;2023-04-19T04:23:51;103169.84;;;5.04;100.00
19600;BME280;9947;57.722;12.012;2023-04-19T04:26:21;103161.25;;;4.81;100.00
19600;BME280;9947;57.722;12.012;2023-04-19T04:28:49;103158.56;;;4.81;100.00
19600;BME280;9947;57.722;12.012;2023-04-19T04:31:23;103154.88;;;4.88;100.00
19600;BME280;9947;57.722;12.012;2023-04-19T04:33:50;103153.31;;;4.73;100.00
19600;BME280;9947;57.722;12.012;2023-04-19T04:36:25;103146.91;;;4.83;100.00
19600;BME280;9947;57.722;12.012;2023-04-19T04:38:57;103153.47;;;5.22;100.00
19600;BME280;9947;57.722;12.012;2023-04-19T04:41:26;103144.09;;;5.49;100.00
19600;BME280;9947;57.722;12.012;2023-04-19T04:43:56;103147.84;;;5.38;100.00
19600;BME280;9947;57.722;12.012;2023-04-19T04:46:25;103151.75;;;5.69;100.00
19600;BME280;9947;57.722;12.012;2023-04-19T04:48:53;103142.78;;;5.70;100.00
19600;BME280;9947;57.722;12.012;2023-04-19T04:51:35;103153.94;;;5.49;100.00
19600;BME280;9947;57.722;12.012;2023-04-19T04:54:03;103159.50;;;5.37;100.00
19600;BME280;9947;57.722;12.012;2023-04-19T04:56:33;103156.03;;;5.30;100.00
19600;BME280;9947;57.722;12.012;2023-04-19T04:59:02;103156.56;;;5.52;100.00
19600;BME280;9947;57.722;12.012;2023-04-19T05:01:30;103165.56;;;5.49;100.00
19600;BME280;9947;57.722;12.012;2023-04-19T05:03:58;103155.75;;;5.98;98.81
19600;BME280;9947;57.722;12.012;2023-04-19T05:06:29;103158.13;;;6.58;94.27
19600;BME280;9947;57.722;12.012;2023-04-19T05:09:03;103161.84;;;6.52;93.28
19600;BME280;9947;57.722;12.012;2023-04-19T05:11:31;103158.44;;;6.42;92.44
19600;BME280;9947;57.722;12.012;2023-04-19T05:14:00;103160.34;;;6.79;88.69
19600;BME280;9947;57.722;12.012;2023-04-19T05:16:27;103158.25;;;7.30;86.71
19600;BME280;9947;57.722;12.012;2023-04-19T05:18:53;103156.56;;;7.94;78.64
19600;BME280;9947;57.722;12.012;2023-04-19T05:21:22;103150.78;;;8.72;71.62
19600;BME280;9947;57.722;12.012;2023-04-19T05:23:53;103162.50;;;8.99;68.29
19600;BME280;9947;57.722;12.012;2023-04-19T05:26:25;103156.56;;;8.58;68.80
19600;BME280;9947;57.722;12.012;2023-04-19T05:28:52;103157.84;;;9.32;65.84
19600;BME280;9947;57.722;12.012;2023-04-19T05:31:20;103151.72;;;8.99;66.14
19600;BME280;9947;57.722;12.012;2023-04-19T05:33:48;103152.44;;;8.76;66.66
19600;BME280;9947;57.722;12.012;2023-04-19T05:36:15;103147.53;;;10.91;58.12
19600;BME280;9947;57.722;12.012;2023-04-19T05:38:58;103139.59;;;10.16;59.63
19600;BME280;9947;57.722;12.012;2023-04-19T05:41:26;103146.53;;;9.73;60.46
19600;BME280;9947;57.722;12.012;2023-04-19T05:43:54;103147.00;;;10.59;59.14
19600;BME280;9947;57.722;12.012;2023-04-19T05:46:21;103152.94;;;9.44;61.91
19600;BME280;9947;57.722;12.012;2023-04-19T05:48:54;103148.19;;;9.51;64.03
19600;BME280;9947;57.722;12.012;2023-04-19T05:51:23;103138.16;;;9.81;60.74
19600;BME280;9947;57.722;12.012;2023-04-19T05:53:56;103139.59;;;9.40;63.33
19600;BME280;9947;57.722;12.012;2023-04-19T05:56:27;103142.31;;;9.12;62.58
19600;BME280;9947;57.722;12.012;2023-04-19T05:58:58;103145.34;;;9.55;61.32
19600;BME280;9947;57.722;12.012;2023-04-19T06:01:26;103138.34;;;8.95;64.56
19600;BME280;9947;57.722;12.012;2023-04-19T06:03:56;103137.31;;;9.00;64.91
19600;BME280;9947;57.722;12.012;2023-04-19T06:06:23;103129.88;;;8.78;65.20
19600;BME280;9947;57.722;12.012;2023-04-19T06:08:50;103130.97;;;9.01;65.34
19600;BME280;9947;57.722;12.012;2023-04-19T06:11:19;103134.81;;;9.48;61.61
19600;BME280;9947;57.722;12.012;2023-04-19T06:13:50;103132.03;;;8.67;64.66
19600;BME280;9947;57.722;12.012;2023-04-19T06:16:20;103123.84;;;8.70;65.42
19600;BME280;9947;57.722;12.012;2023-04-19T06:18:52;103129.53;;;8.61;66.11
19600;BME280;9947;57.722;12.012;2023-04-19T06:21:21;103133.84;;;8.67;65.72
19600;BME280;9947;57.722;12.012;2023-04-19T06:23:50;103126.53;;;8.41;66.25
19600;BME280;9947;57.722;12.012;2023-04-19T06:26:18;103131.06;;;8.70;65.09
19600;BME280;9947;57.722;12.012;2023-04-19T06:28:54;103138.41;;;8.64;64.82
19600;BME280;9947;57.722;12.012;2023-04-19T06:31:22;103132.72;;;8.44;66.75
19600;BME280;9947;57.722;12.012;2023-04-19T06:33:51;103140.53;;;8.53;64.94
19600;BME280;9947;57.722;12.012;2023-04-19T06:36:19;103137.34;;;8.08;66.65
19600;BME280;9947;57.722;12.012;2023-04-19T06:38:53;103131.06;;;8.40;67.66
19600;BME280;9947;57.722;12.012;2023-04-19T06:41:24;103131.22;;;8.32;67.37
19600;BME280;9947;57.722;12.012;2023-04-19T06:44:00;103123.50;;;8.20;69.04
19600;BME280;9947;57.722;12.012;2023-04-19T06:46:28;103137.34;;;8.08;67.81
19600;BME280;9947;57.722;12.012;2023-04-19T06:49:02;103125.41;;;7.86;68.21
19600;BME280;9947;57.722;12.012;2023-04-19T06:51:33;103119.97;;;7.87;69.18
19600;BME280;9947;57.722;12.012;2023-04-19T06:54:03;103126.28;;;7.86;69.55
19600;BME280;9947;57.722;12.012;2023-04-19T06:56:42;103126.94;;;7.94;70.27
19600;BME280;9947;57.722;12.012;2023-04-19T06:59:16;103115.53;;;8.17;69.85
19600;BME280;9947;57.722;12.012;2023-04-19T07:01:48;103115.34;;;8.23;69.99
19600;BME280;9947;57.722;12.012;2023-04-19T07:04:17;103118.16;;;8.19;69.34
19600;BME280;9947;57.722;12.012;2023-04-19T07:06:48;103117.19;;;8.21;69.37
19600;BME280;9947;57.722;12.012;2023-04-19T07:09:18;103113.97;;;8.09;68.96
19600;BME280;9947;57.722;12.012;2023-04-19T07:11:45;103109.66;;;8.32;68.51
19600;BME280;9947;57.722;12.012;2023-04-19T07:14:21;103112.41;;;8.31;69.11
19600;BME280;9947;57.722;12.012;2023-04-19T07:16:50;103105.19;;;8.31;69.80
19600;BME280;9947;57.722;12.012;2023-04-19T07:19:19;103114.88;;;8.40;69.05
19600;BME280;9947;57.722;12.012;2023-04-19T07:21:52;103112.38;;;8.63;67.81
19600;BME280;9947;57.722;12.012;2023-04-19T07:24:21;103112.75;;;8.79;67.49
19600;BME280;9947;57.722;12.012;2023-04-19T07:26:48;103108.69;;;8.66;66.39
19600;BME280;9947;57.722;12.012;2023-04-19T07:29:22;103109.53;;;8.68;67.22
19600;BME280;9947;57.722;12.012;2023-04-19T07:31:49;103112.13;;;8.71;67.55
19600;BME280;9947;57.722;12.012;2023-04-19T07:34:19;103105.75;;;9.02;66.35
19600;BME280;9947;57.722;12.012;2023-04-19T07:36:46;103109.19;;;9.07;65.58
19600;BME280;9947;57.722;12.012;2023-04-19T07:39:15;103106.53;;;9.05;63.77
19600;BME280;9947;57.722;12.012;2023-04-19T07:41:43;103109.78;;;9.16;63.49
19600;BME280;9947;57.722;12.012;2023-04-19T07:44:14;103109.69;;;8.91;64.57
19600;BME280;9947;57.722;12.012;2023-04-19T07:46:50;103098.63;;;9.27;63.36
19600;BME280;9947;57.722;12.012;2023-04-19T07:49:21;103101.34;;;9.52;63.79
19600;BME280;9947;57.722;12.012;2023-04-19T07:51:50;103100.97;;;9.63;61.96
19600;BME280;9947;57.722;12.012;2023-04-19T07:54:20;103103.50;;;9.42;60.68
19600;BME280;9947;57.722;12.012;2023-04-19T07:56:48;103091.66;;;9.46;60.54
19600;BME280;9947;57.722;12.012;2023-04-19T07:59:17;103086.22;;;9.73;60.71
19600;BME280;9947;57.722;12.012;2023-04-19T08:02:00;103089.75;;;9.75;59.87
19600;BME280;9947;57.722;12.012;2023-04-19T08:04:28;103086.16;;;9.99;59.80
19600;BME280;9947;57.722;12.012;2023-04-19T08:06:59;103089.38;;;10.09;58.41
19600;BME280;9947;57.722;12.012;2023-04-19T08:09:28;103088.22;;;9.93;57.98
19600;BME280;9947;57.722;12.012;2023-04-19T08:11:56;103085.28;;;9.74;58.38
19600;BME280;9947;57.722;12.012;2023-04-19T08:14:23;103084.00;;;9.84;58.77
19600;BME280;9947;57.722;12.012;2023-04-19T08:16:54;103079.47;;;10.09;57.33
19600;BME280;9947;57.722;12.012;2023-04-19T08:19:22;103083.28;;;10.29;56.58
19600;BME280;9947;57.722;12.012;2023-04-19T08:21:49;103080.50;;;10.30;55.37
19600;BME280;9947;57.722;12.012;2023-04-19T08:24:19;103074.84;;;10.36;55.89
19600;BME280;9947;57.722;12.012;2023-04-19T08:26:48;103079.81;;;10.48;56.34
19600;BME280;9947;57.722;12.012;2023-04-19T08:29:20;103078.03;;;10.71;55.66
19600;BME280;9947;57.722;12.012;2023-04-19T08:31:48;103071.66;;;10.72;55.53
19600;BME280;9947;57.722;12.012;2023-04-19T08:34:21;103077.56;;;10.81;54.25
19600;BME280;9947;57.722;12.012;2023-04-19T08:36:50;103077.56;;;10.81;54.30
19600;BME280;9947;57.722;12.012;2023-04-19T08:39:17;103077.50;;;11.05;54.01
19600;BME280;9947;57.722;12.012;2023-04-19T08:41:45;103071.78;;;11.12;52.59
19600;BME280;9947;57.722;12.012;2023-04-19T08:44:16;103072.56;;;10.94;52.82
19600;BME280;9947;57.722;12.012;2023-04-19T08:46:48;103074.13;;;10.78;53.28
19600;BME280;9947;57.722;12.012;2023-04-19T08:49:22;103059.31;;;10.87;52.49
19600;BME280;9947;57.722;12.012;2023-04-19T08:51:51;103058.56;;;10.83;52.34
19600;BME280;9947;57.722;12.012;2023-04-19T08:54:22;103066.00;;;11.00;51.87
19600;BME280;9947;57.722;12.012;2023-04-19T08:56:53;103062.34;;;11.01;52.07
19600;BME280;9947;57.722;12.012;2023-04-19T08:59:21;103051.06;;;11.11;52.12
19600;BME280;9947;57.722;12.012;2023-04-19T09:01:48;103047.59;;;11.30;52.57
19600;BME280;9947;57.722;12.012;2023-04-19T09:04:15;103055.78;;;11.06;52.04
19600;BME280;9947;57.722;12.012;2023-04-19T09:06:46;103050.22;;;11.31;51.12
19600;BME280;9947;57.722;12.012;2023-04-19T09:09:15;103045.38;;;11.18;50.22
19600;BME280;9947;57.722;12.012;2023-04-19T09:11:44;103045.09;;;11.46;50.50
19600;BME280;9947;57.722;12.012;2023-04-19T09:14:15;103023.72;;;11.18;48.83
19600;BME280;9947;57.722;12.012;2023-04-19T09:16:46;103039.50;;;11.08;48.81
19600;BME280;9947;57.722;12.012;2023-04-19T09:19:13;103032.38;;;11.05;48.76
19600;BME280;9947;57.722;12.012;2023-04-19T09:21:41;103033.06;;;11.10;48.26
19600;BME280;9947;57.722;12.012;2023-04-19T09:24:12;103024.38;;;11.24;47.87
19600;BME280;9947;57.722;12.012;2023-04-19T09:26:39;103031.28;;;11.31;47.76
19600;BME280;9947;57.722;12.012;2023-04-19T09:29:15;103033.38;;;11.25;47.15
19600;BME280;9947;57.722;12.012;2023-04-19T09:31:55;103018.00;;;11.25;47.79
19600;BME280;9947;57.722;12.012;2023-04-19T09:34:23;103025.09;;;11.28;47.68
19600;BME280;9947;57.722;12.012;2023-04-19T09:36:55;103010.88;;;11.43;46.53
19600;BME280;9947;57.722;12.012;2023-04-19T09:39:32;103029.44;;;11.32;46.24
19600;BME280;9947;57.722;12.012;2023-04-19T09:42:01;103027.53;;;11.34;47.39
19600;BME280;9947;57.722;12.012;2023-04-19T09:44:35;103013.41;;;11.27;45.55
19600;BME280;9947;57.722;12.012;2023-04-19T09:47:20;103014.88;;;11.34;45.01
19600;BME280;9947;57.722;12.012;2023-04-19T09:50:05;103003.84;;;11.39;46.09
19600;BME280;9947;57.722;12.012;2023-04-19T09:52:32;103007.72;;;11.33;45.82
19600;BME280;9947;57.722;12.012;2023-04-19T09:55:04;102997.34;;;11.43;45.42
19600;BME280;9947;57.722;12.012;2023-04-19T09:57:32;102998.28;;;11.42;45.72
19600;BME280;9947;57.722;12.012;2023-04-19T10:00:01;102995.66;;;11.61;46.46
19600;BME280;9947;57.722;12.012;2023-04-19T10:02:34;103022.72;;;11.40;45.23
19600;BME280;9947;57.722;12.012;2023-04-19T10:05:06;102996.88;;;11.33;45.04
19600;BME280;9947;57.722;12.012;2023-04-19T10:07:38;102976.69;;;11.40;43.99
19600;BME280;9947;57.722;12.012;2023-04-19T10:10:16;102981.28;;;11.59;42.50
19600;BME280;9947;57.722;12.012;2023-04-19T10:12:48;102977.09;;;11.52;42.96
19600;BME280;9947;57.722;12.012;2023-04-19T10:15:19;102971.75;;;11.50;41.61
19600;BME280;9947;57.722;12.012;2023-04-19T10:17:49;102950.47;;;11.61;41.71
19600;BME280;9947;57.722;12.012;2023-04-19T10:20:20;102955.53;;;11.69;42.16
19600;BME280;9947;57.722;12.012;2023-04-19T10:22:53;102966.56;;;11.85;42.57
19600;BME280;9947;57.722;12.012;2023-04-19T10:25:27;102955.34;;;11.73;42.45
19600;BME280;9947;57.722;12.012;2023-04-19T10:27:57;102969.06;;;11.89;41.98
19600;BME280;9947;57.722;12.012;2023-04-19T10:30:26;102962.38;;;11.78;42.03
19600;BME280;9947;57.722;12.012;2023-04-19T10:32:55;102966.28;;;11.91;41.76
19600;BME280;9947;57.722;12.012;2023-04-19T10:35:23;102961.09;;;11.86;40.99
19600;BME280;9947;57.722;12.012;2023-04-19T10:38:07;102952.38;;;12.17;41.64
19600;BME280;9947;57.722;12.012;2023-04-19T10:40:58;102954.00;;;12.02;42.42
19600;BME280;9947;57.722;12.012;2023-04-19T10:43:29;102945.47;;;11.91;41.99
19600;BME280;9947;57.722;12.012;2023-04-19T10:46:09;102935.91;;;12.03;41.40
19600;BME280;9947;57.722;12.012;2023-04-19T10:48:50;102948.78;;;12.35;41.74
19600;BME280;9947;57.722;12.012;2023-04-19T10:51:25;102938.84;;;11.98;41.83
19600;BME280;9947;57.722;12.012;2023-04-19T10:53:55;102928.94;;;11.97;42.31
19600;BME280;9947;57.722;12.012;2023-04-19T10:56:59;102938.84;;;11.98;41.63
19600;BME280;9947;57.722;12.012;2023-04-19T10:59:31;102945.56;;;12.09;42.22
19600;BME280;9947;57.722;12.012;2023-04-19T11:02:00;102934.63;;;11.91;41.87
19600;BME280;9947;57.722;12.012;2023-04-19T11:04:57;102935.69;;;12.08;42.30
19600;BME280;9947;57.722;12.012;2023-04-19T11:07:36;102934.56;;;11.93;41.73
19600;BME280;9947;57.722;12.012;2023-04-19T11:10:08;102932.25;;;12.04;41.71
19600;BME280;9947;57.722;12.012;2023-04-19T11:12:41;102920.94;;;11.94;42.31
19600;BME280;9947;57.722;12.012;2023-04-19T11:15:08;102915.25;;;12.00;41.95
19600;BME280;9947;57.722;12.012;2023-04-19T11:17:36;102912.31;;;12.24;41.24
19600;BME280;9947;57.722;12.012;2023-04-19T11:20:05;102911.88;;;12.50;41.47
19600;BME280;9947;57.722;12.012;2023-04-19T11:22:34;102916.91;;;12.58;41.59
19600;BME280;9947;57.722;12.012;2023-04-19T11:25:10;102910.94;;;12.51;40.71
19600;BME280;9947;57.722;12.012;2023-04-19T11:27:49;102913.19;;;12.42;41.06
19600;BME280;9947;57.722;12.012;2023-04-19T11:30:19;102908.97;;;12.36;41.30
19600;BME280;9947;57.722;12.012;2023-04-19T11:32:57;102901.66;;;12.55;40.64
19600;BME280;9947;57.722;12.012;2023-04-19T11:35:33;102903.44;;;12.56;38.45
19600;BME280;9947;57.722;12.012;2023-04-19T11:38:03;102909.41;;;12.63;39.08
19600;BME280;9947;57.722;12.012;2023-04-19T11:40:32;102899.91;;;12.72;39.30
19600;BME280;9947;57.722;12.012;2023-04-19T11:43:06;102918.66;;;12.59;38.13
19600;BME280;9947;57.722;12.012;2023-04-19T11:45:34;102888.66;;;12.62;38.02
19600;BME280;9947;57.722;12.012;2023-04-19T11:48:06;102878.53;;;12.65;37.83
19600;BME280;9947;57.722;12.012;2023-04-19T11:50:43;102883.34;;;12.78;37.07
19600;BME280;9947;57.722;12.012;2023-04-19T11:53:16;102891.28;;;12.63;37.83
19600;BME280;9947;57.722;12.012;2023-04-19T11:55:47;102877.91;;;12.78;35.52
19600;BME280;9947;57.722;12.012;2023-04-19T11:58:28;102881.97;;;12.86;35.09
19600;BME280;9947;57.722;12.012;2023-04-19T12:01:08;102873.66;;;13.07;35.42
19600;BME280;9947;57.722;12.012;2023-04-19T12:03:40;102887.69;;;13.15;36.33
19600;BME280;9947;57.722;12.012;2023-04-19T12:06:13;102878.28;;;12.70;36.81
19600;BME280;9947;57.722;12.012;2023-04-19T12:08:43;102866.72;;;12.66;36.87
19600;BME280;9947;57.722;12.012;2023-04-19T12:11:14;102863.19;;;12.99;36.21
19600;BME280;9947;57.722;12.012;2023-04-19T12:13:44;102864.47;;;13.09;36.56
19600;BME280;9947;57.722;12.012;2023-04-19T12:16:14;102867.44;;;12.87;36.88
19600;BME280;9947;57.722;12.012;2023-04-19T12:18:55;102861.84;;;13.08;36.65
19600;BME280;9947;57.722;12.012;2023-04-19T12:21:23;102863.41;;;13.12;36.46
19600;BME280;9947;57.722;12.012;2023-04-19T12:23:58;102868.53;;;13.01;36.49
19600;BME280;9947;57.722;12.012;2023-04-19T12:26:28;102856.13;;;12.79;35.73
19600;BME280;9947;57.722;12.012;2023-04-19T12:28:59;102856.03;;;12.81;36.12
19600;BME280;9947;57.722;12.012;2023-04-19T12:31:29;102853.44;;;12.95;35.76
19600;BME280;9947;57.722;12.012;2023-04-19T12:33:59;102860.47;;;12.99;35.00
19600;BME280;9947;57.722;12.012;2023-04-19T12:36:31;102850.44;;;13.01;35.63
19600;BME280;9947;57.722;12.012;2023-04-19T12:39:00;102848.09;;;12.93;35.59
19600;BME280;9947;57.722;12.012;2023-04-19T12:41:28;102842.03;;;13.06;35.30
19600;BME280;9947;57.722;12.012;2023-04-19T12:43:58;102853.00;;;12.87;34.88
19600;BME280;9947;57.722;12.012;2023-04-19T12:46:25;102829.00;;;12.95;35.01
19600;BME280;9947;57.722;12.012;2023-04-19T12:48:54;102841.88;;;13.09;35.82
19600;BME280;9947;57.722;12.012;2023-04-19T12:51:25;102842.13;;;12.87;35.92
19600;BME280;9947;57.722;12.012;2023-04-19T12:53:53;102850.19;;;12.88;35.78
19600;BME280;9947;57.722;12.012;2023-04-19T12:56:23;102847.16;;;12.94;35.19
19600;BME280;9947;57.722;12.012;2023-04-19T12:58:50;102829.34;;;12.89;35.11
19600;BME280;9947;57.722;12.012;2023-04-19T13:01:22;102827.66;;;13.21;35.06
19600;BME280;9947;57.722;12.012;2023-04-19T13:03:50;102817.16;;;13.13;34.63
19600;BME280;9947;57.722;12.012;2023-04-19T13:06:22;102821.81;;;13.11;34.67
19600;BME280;9947;57.722;12.012;2023-04-19T13:08:50;102815.34;;;12.96;34.48
19600;BME280;9947;57.722;12.012;2023-04-19T13:11:20;102814.47;;;13.13;34.24
19600;BME280;9947;57.722;12.012;2023-04-19T13:13:49;102813.72;;;13.27;34.54
19600;BME280;9947;57.722;12.012;2023-04-19T13:16:22;102821.00;;;13.26;34.83
19600;BME280;9947;57.722;12.012;2023-04-19T13:18:50;102811.50;;;13.18;34.66